createdAt,value
2018-02-09T00:00:01.419Z,77.00
2018-02-09T00:02:28.238Z,76.90
2018-02-09T00:04:54.315Z,76.80
2018-02-09T00:07:20.389Z,77.40
2018-02-09T00:09:46.461Z,77.40
2018-02-09T00:12:12.537Z,77.50
2018-02-09T00:14:38.607Z,77.60
2018-02-09T00:17:04.685Z,77.60
2018-02-09T00:19:30.790Z,77.80
2018-02-09T00:21:56.910Z,78.20
2018-02-09T00:24:22.978Z,78.50
2018-02-09T00:26:49.058Z,78.60
2018-02-09T00:29:15.125Z,78.80
2018-02-09T00:31:41.978Z,79.40
2018-02-09T00:34:08.794Z,79.30
2018-02-09T00:36:34.871Z,79.20
2018-02-09T00:39:00.937Z,79.20
2018-02-09T00:41:26.992Z,79.30
2018-02-09T00:43:53.814Z,78.60
2018-02-09T00:46:19.900Z,78.40
2018-02-09T00:48:45.966Z,78.60
2018-02-09T00:51:12.317Z,79.00
2018-02-09T00:53:39.125Z,79.30
2018-02-09T00:56:05.201Z,79.20
2018-02-09T00:58:31.290Z,79.40
2018-02-09T01:00:58.125Z,79.70
2018-02-09T01:03:24.195Z,79.60
2018-02-09T01:05:50.273Z,79.80
2018-02-09T01:08:16.345Z,79.70
2018-02-09T01:10:42.422Z,79.30
2018-02-09T01:13:08.498Z,79.30
2018-02-09T01:15:34.584Z,79.70
2018-02-09T01:18:00.669Z,79.70
2018-02-09T01:20:26.746Z,79.70
2018-02-09T01:22:52.818Z,80.20
2018-02-09T01:25:18.884Z,80.50
2018-02-09T01:27:44.973Z,80.80
2018-02-09T01:30:11.341Z,80.60
2018-02-09T01:32:38.146Z,81.80
2018-02-09T01:35:04.226Z,80.70
2018-02-09T01:37:31.031Z,81.30
2018-02-09T01:39:57.110Z,81.10
2018-02-09T01:42:23.184Z,80.70
2018-02-09T01:44:49.265Z,80.80
2018-02-09T01:47:15.337Z,81.20
2018-02-09T01:49:41.409Z,81.20
2018-02-09T01:52:07.802Z,81.10
2018-02-09T01:54:33.876Z,81.40
2018-02-09T01:56:59.941Z,81.80
2018-02-09T01:59:26.030Z,82.00
2018-02-09T02:01:52.113Z,81.90
2018-02-09T02:04:18.195Z,81.90
2018-02-09T02:06:44.283Z,81.70
2018-02-09T02:09:10.350Z,81.20
2018-02-09T02:11:36.425Z,81.50
2018-02-09T02:14:03.357Z,81.80
2018-02-09T02:16:29.416Z,81.70
2018-02-09T02:18:55.485Z,82.10
2018-02-09T02:21:21.546Z,81.80
2018-02-09T02:23:48.369Z,82.50
2018-02-09T02:26:14.434Z,82.30
2018-02-09T02:28:40.505Z,82.40
2018-02-09T02:31:06.576Z,82.60
2018-02-09T02:33:32.667Z,82.30
2018-02-09T02:35:58.750Z,82.10
2018-02-09T02:38:24.897Z,82.10
2018-02-09T02:40:50.965Z,81.90
2018-02-09T02:43:17.075Z,82.20
2018-02-09T02:45:43.146Z,82.20
2018-02-09T02:48:09.209Z,81.80
2018-02-09T02:50:36.178Z,81.70
2018-02-09T02:53:03.033Z,81.80
2018-02-09T02:55:29.106Z,81.70
2018-02-09T02:57:55.173Z,81.70
2018-02-09T03:00:21.694Z,82.00
2018-02-09T03:02:48.509Z,82.20
2018-02-09T03:05:14.585Z,82.10
2018-02-09T03:07:40.799Z,82.00
2018-02-09T03:10:07.628Z,81.90
2018-02-09T03:12:33.701Z,81.90
2018-02-09T03:14:59.773Z,82.00
2018-02-09T03:17:25.857Z,82.10
2018-02-09T03:19:51.919Z,82.20
2018-02-09T03:22:17.986Z,81.60
2018-02-09T03:24:44.060Z,81.70
2018-02-09T03:27:10.137Z,81.60
2018-02-09T03:29:36.737Z,81.50
2018-02-09T03:32:02.844Z,81.70
2018-02-09T03:34:28.913Z,82.60
2018-02-09T03:36:54.989Z,81.60
2018-02-09T03:39:28.050Z,81.60
2018-02-09T03:41:54.143Z,81.40
2018-02-09T03:44:20.209Z,81.30
2018-02-09T03:46:46.290Z,81.20
2018-02-09T03:49:13.117Z,80.70
2018-02-09T03:51:39.287Z,80.60
2018-02-09T03:54:05.388Z,80.70
2018-02-09T03:56:31.977Z,80.70
2018-02-09T03:58:58.041Z,80.60
2018-02-09T04:01:24.114Z,80.40
2018-02-09T04:03:50.203Z,80.20
2018-02-09T04:06:16.278Z,80.30
2018-02-09T04:08:42.375Z,80.40
2018-02-09T04:11:08.458Z,80.40
2018-02-09T04:13:34.529Z,80.70
2018-02-09T04:16:00.964Z,80.60
2018-02-09T04:18:27.047Z,80.80
2018-02-09T04:20:53.178Z,80.90
2018-02-09T04:23:19.246Z,81.30
2018-02-09T04:25:45.346Z,81.20
2018-02-09T04:28:11.417Z,81.20
2018-02-09T04:30:37.477Z,81.10
2018-02-09T04:33:03.550Z,81.00
2018-02-09T04:35:29.621Z,80.80
2018-02-09T04:37:56.496Z,80.70
2018-02-09T04:40:22.561Z,80.60
2018-02-09T04:42:48.690Z,80.60
2018-02-09T04:45:14.778Z,80.30
2018-02-09T04:47:40.858Z,80.60
2018-02-09T04:50:07.670Z,80.90
2018-02-09T04:52:33.734Z,80.80
2018-02-09T04:55:00.541Z,80.80
2018-02-09T04:57:26.990Z,80.80
2018-02-09T04:59:53.061Z,81.00
2018-02-09T05:02:19.165Z,81.30
2018-02-09T05:04:45.977Z,81.20
2018-02-09T05:07:12.050Z,81.10
2018-02-09T05:09:38.125Z,81.20
2018-02-09T05:12:04.190Z,81.20
2018-02-09T05:14:32.032Z,81.20
2018-02-09T05:16:58.113Z,81.30
2018-02-09T05:19:24.188Z,81.30
2018-02-09T05:21:50.724Z,81.50
2018-02-09T05:24:16.802Z,81.60
2018-02-09T05:26:42.869Z,81.90
2018-02-09T05:29:08.965Z,81.70
2018-02-09T05:31:35.062Z,81.90
2018-02-09T05:34:01.166Z,82.00
2018-02-09T05:36:28.009Z,81.60
2018-02-09T05:38:54.860Z,81.40
2018-02-09T05:41:20.991Z,81.20
2018-02-09T05:43:47.060Z,81.40
2018-02-09T05:46:13.132Z,81.20
2018-02-09T05:48:39.215Z,81.20
2018-02-09T05:51:05.302Z,81.00
2018-02-09T05:53:31.383Z,81.00
2018-02-09T05:55:57.521Z,80.60
2018-02-09T05:58:24.336Z,80.80
2018-02-09T06:00:50.417Z,80.70
2018-02-09T06:03:16.490Z,81.00
2018-02-09T06:05:42.558Z,81.50
2018-02-09T06:08:08.633Z,81.80
2018-02-09T06:10:34.708Z,82.00
2018-02-09T06:13:00.823Z,82.20
2018-02-09T06:15:26.898Z,82.10
2018-02-09T06:17:53.010Z,81.70
2018-02-09T06:20:19.097Z,81.70
2018-02-09T06:22:45.922Z,81.50
2018-02-09T06:25:12.242Z,81.40
2018-02-09T06:27:38.303Z,81.60
2018-02-09T06:30:04.417Z,81.50
2018-02-09T06:32:31.275Z,81.20
2018-02-09T06:34:57.387Z,81.20
2018-02-09T06:37:24.189Z,81.80
2018-02-09T06:39:50.269Z,81.60
2018-02-09T06:42:16.341Z,81.80
2018-02-09T06:44:42.416Z,81.90
2018-02-09T06:47:08.505Z,82.00
2018-02-09T06:49:34.570Z,82.30
2018-02-09T06:52:00.636Z,82.20
2018-02-09T06:54:26.779Z,82.80
2018-02-09T06:56:53.124Z,82.90
2018-02-09T06:59:19.937Z,82.20
2018-02-09T07:01:46.029Z,82.20
2018-02-09T07:04:12.102Z,82.10
2018-02-09T07:06:38.251Z,82.20
2018-02-09T07:09:05.070Z,82.80
2018-02-09T07:11:31.125Z,82.80
2018-02-09T07:13:57.189Z,82.60
2018-02-09T07:16:23.277Z,82.00
2018-02-09T07:18:49.352Z,81.90
2018-02-09T07:21:15.426Z,81.50
2018-02-09T07:23:41.502Z,81.10
2018-02-09T07:26:07.650Z,81.00
2018-02-09T07:28:33.718Z,80.70
2018-02-09T07:30:59.793Z,80.70
2018-02-09T07:33:25.877Z,80.60
2018-02-09T07:35:51.941Z,80.30
2018-02-09T07:38:18.030Z,80.10
2018-02-09T07:40:44.098Z,79.80
2018-02-09T07:43:10.626Z,79.40
2018-02-09T07:45:36.669Z,79.50
2018-02-09T07:48:03.472Z,79.60
2018-02-09T07:50:29.528Z,79.60
2018-02-09T07:52:55.597Z,79.70
2018-02-09T07:55:21.676Z,80.40
2018-02-09T07:57:47.770Z,79.70
2018-02-09T08:00:13.858Z,79.70
2018-02-09T08:02:39.946Z,79.70
2018-02-09T08:05:06.051Z,79.70
2018-02-09T08:07:32.118Z,79.70
2018-02-09T08:09:58.196Z,79.60
2018-02-09T08:12:24.258Z,79.80
2018-02-09T08:14:50.325Z,79.70
2018-02-09T08:17:16.399Z,79.40
2018-02-09T08:19:43.228Z,79.10
2018-02-09T08:22:09.309Z,79.00
2018-02-09T08:24:35.492Z,78.90
2018-02-09T08:27:01.570Z,78.80
2018-02-09T08:29:27.706Z,78.60
2018-02-09T08:31:53.786Z,78.50
2018-02-09T08:34:20.604Z,77.50
2018-02-09T08:36:46.691Z,77.50
2018-02-09T08:39:12.766Z,77.30
2018-02-09T08:41:39.601Z,77.00
2018-02-09T08:44:12.639Z,76.80
2018-02-09T08:46:38.705Z,76.60
2018-02-09T08:49:04.785Z,76.20
2018-02-09T08:51:31.229Z,76.20
2018-02-09T08:53:57.317Z,76.10
2018-02-09T08:56:24.129Z,75.70
2018-02-09T08:58:50.233Z,75.60
2018-02-09T09:01:16.310Z,75.60
2018-02-09T09:03:42.378Z,75.20
2018-02-09T09:06:08.514Z,75.10
2018-02-09T09:08:34.585Z,74.60
2018-02-09T09:11:00.677Z,74.70
2018-02-09T09:13:26.754Z,74.60
2018-02-09T09:15:52.829Z,74.30
2018-02-09T09:18:18.909Z,74.00
2018-02-09T09:20:44.977Z,73.60
2018-02-09T09:23:11.041Z,73.50
2018-02-09T09:25:37.123Z,73.70
2018-02-09T09:28:03.198Z,73.40
2018-02-09T09:30:29.257Z,72.60
2018-02-09T09:32:55.351Z,72.40
2018-02-09T09:35:21.416Z,72.50
2018-02-09T09:37:47.673Z,72.30
2018-02-09T09:40:13.789Z,71.80
2018-02-09T09:42:39.854Z,71.60
2018-02-09T09:45:05.965Z,71.60
2018-02-09T09:47:32.773Z,71.30
2018-02-09T09:49:58.909Z,71.20
2018-02-09T09:52:24.978Z,70.80
2018-02-09T09:54:51.161Z,70.00
2018-02-09T09:57:17.246Z,70.00
2018-02-09T09:59:43.709Z,70.00
2018-02-09T10:02:28.387Z,70.00
2018-02-09T10:04:54.473Z,69.60
2018-02-09T10:07:20.545Z,69.20
2018-02-09T10:09:46.609Z,68.80
2018-02-09T10:12:12.711Z,68.80
2018-02-09T10:14:38.809Z,68.40
2018-02-09T10:17:04.870Z,67.70
2018-02-09T10:19:30.941Z,67.40
2018-02-09T10:21:57.008Z,67.30
2018-02-09T10:24:23.079Z,67.00
2018-02-09T10:26:49.229Z,67.00
2018-02-09T10:29:15.294Z,66.20
2018-02-09T10:31:41.433Z,65.70
2018-02-09T10:34:07.499Z,65.70
2018-02-09T10:36:33.573Z,65.40
2018-02-09T10:38:59.657Z,65.30
2018-02-09T10:41:25.751Z,65.00
2018-02-09T10:43:51.830Z,64.80
2018-02-09T10:46:17.906Z,65.10
2018-02-09T10:48:43.974Z,65.80
2018-02-09T10:51:10.056Z,66.00
2018-02-09T10:53:36.142Z,66.70
2018-02-09T10:56:02.783Z,67.30
2018-02-09T10:58:28.848Z,67.40
2018-02-09T11:00:57.585Z,67.10
2018-02-09T11:03:24.389Z,66.30
2018-02-09T11:05:50.464Z,66.30
2018-02-09T11:08:16.545Z,66.20
2018-02-09T11:10:46.521Z,65.70
2018-02-09T11:13:15.549Z,65.30
2018-02-09T11:15:41.660Z,65.60
2018-02-09T11:18:07.733Z,65.50
2018-02-09T11:20:33.793Z,65.60
2018-02-09T11:22:59.874Z,65.40
2018-02-09T11:25:26.752Z,65.10
2018-02-09T11:27:52.819Z,65.10
2018-02-09T11:30:18.889Z,64.80
2018-02-09T11:32:45.000Z,64.00
2018-02-09T11:35:12.637Z,63.60
2018-02-09T11:37:38.732Z,63.40
2018-02-09T11:40:05.364Z,62.30
2018-02-09T11:42:31.520Z,61.70
2018-02-09T11:44:57.635Z,60.50
2018-02-09T11:47:23.733Z,59.70
2018-02-09T11:49:49.829Z,58.60
2018-02-09T11:52:15.903Z,58.00
2018-02-09T11:54:41.974Z,58.60
2018-02-09T11:57:08.065Z,59.40
2018-02-09T11:59:34.143Z,60.00
2018-02-09T12:02:00.542Z,61.40
2018-02-09T12:04:26.636Z,61.10
2018-02-09T12:06:52.715Z,61.70
2018-02-09T12:09:18.809Z,61.90
2018-02-09T12:11:44.884Z,61.80
2018-02-09T12:14:10.961Z,61.20
2018-02-09T12:16:37.843Z,61.30
2018-02-09T12:19:03.916Z,61.20
2018-02-09T12:21:30.059Z,60.10
2018-02-09T12:23:56.153Z,59.70
2018-02-09T12:26:22.224Z,58.50
2018-02-09T12:28:48.300Z,57.90
2018-02-09T12:31:14.421Z,57.80
2018-02-09T12:33:40.525Z,57.90
2018-02-09T12:36:06.613Z,57.30
2018-02-09T12:38:32.696Z,56.80
2018-02-09T12:40:58.813Z,57.20
2018-02-09T12:43:24.901Z,57.10
2018-02-09T12:45:51.714Z,56.70
2018-02-09T12:48:17.797Z,56.60
2018-02-09T12:50:43.885Z,56.40
2018-02-09T12:53:10.771Z,55.90
2018-02-09T12:55:36.853Z,55.80
2018-02-09T12:58:02.965Z,56.10
2018-02-09T13:00:29.057Z,55.30
2018-02-09T13:02:55.146Z,55.40
2018-02-09T13:05:21.221Z,56.10
2018-02-09T13:07:47.305Z,56.20
2018-02-09T13:10:13.679Z,55.60
2018-02-09T13:12:58.434Z,54.90
2018-02-09T13:15:24.512Z,54.70
2018-02-09T13:17:50.606Z,54.80
2018-02-09T13:20:26.024Z,54.40
2018-02-09T13:23:10.883Z,54.40
2018-02-09T13:25:37.932Z,54.00
2018-02-09T13:28:04.018Z,54.00
2018-02-09T13:30:30.870Z,53.60
2018-02-09T13:33:15.570Z,53.50
2018-02-09T13:35:41.645Z,54.20
2018-02-09T13:38:08.466Z,53.10
2018-02-09T13:40:34.550Z,52.90
2018-02-09T13:43:00.625Z,52.70
2018-02-09T13:45:26.721Z,52.50
2018-02-09T13:47:52.784Z,52.30
2018-02-09T13:50:20.189Z,51.90
2018-02-09T13:52:46.266Z,51.80
2018-02-09T13:55:12.541Z,51.80
2018-02-09T13:57:38.609Z,51.90
2018-02-09T14:00:04.686Z,51.80
2018-02-09T14:02:30.795Z,51.40
2018-02-09T14:04:56.889Z,51.10
2018-02-09T14:07:22.977Z,51.10
2018-02-09T14:09:49.071Z,50.90
2018-02-09T14:12:15.153Z,50.60
2018-02-09T14:14:41.222Z,50.40
2018-02-09T14:17:07.349Z,50.90
2018-02-09T14:19:33.425Z,51.00
2018-02-09T14:21:59.538Z,50.80
2018-02-09T14:24:26.252Z,50.30
2018-02-09T14:26:52.736Z,49.90
2018-02-09T14:29:18.812Z,49.50
2018-02-09T14:31:44.898Z,49.60
2018-02-09T14:34:10.989Z,49.60
2018-02-09T14:36:37.057Z,49.50
2018-02-09T14:39:03.146Z,49.50
2018-02-09T14:41:29.281Z,49.40
2018-02-09T14:43:55.365Z,49.10
2018-02-09T14:46:21.457Z,48.80
2018-02-09T14:48:47.525Z,48.30
2018-02-09T14:51:13.593Z,48.40
2018-02-09T14:53:39.673Z,48.10
2018-02-09T14:56:06.086Z,48.10
2018-02-09T14:58:32.176Z,48.40
2018-02-09T15:00:58.257Z,49.40
2018-02-09T15:03:24.345Z,51.00
2018-02-09T15:05:50.418Z,52.00
2018-02-09T15:08:16.502Z,52.60
2018-02-09T15:10:42.588Z,53.10
2018-02-09T15:13:08.677Z,53.30
2018-02-09T15:15:34.761Z,53.40
2018-02-09T15:18:01.585Z,52.40
2018-02-09T15:20:27.662Z,52.30
2018-02-09T15:22:53.741Z,51.60
2018-02-09T15:25:21.686Z,50.60
2018-02-09T15:27:47.757Z,50.50
2018-02-09T15:30:13.829Z,50.70
2018-02-09T15:32:39.926Z,51.20
2018-02-09T15:35:06.005Z,51.40
2018-02-09T15:37:32.087Z,51.40
2018-02-09T15:39:58.165Z,51.60
2018-02-09T15:42:25.001Z,51.70
2018-02-09T15:44:51.833Z,51.80
2018-02-09T15:47:17.906Z,51.80
2018-02-09T15:49:44.043Z,51.90
2018-02-09T15:52:10.353Z,52.30
2018-02-09T15:54:36.426Z,52.40
2018-02-09T15:57:02.515Z,53.00
2018-02-09T15:59:28.594Z,53.20
2018-02-09T16:01:55.414Z,54.00
2018-02-09T16:04:21.489Z,53.90
2018-02-09T16:06:47.560Z,54.30
2018-02-09T16:09:13.633Z,54.50
2018-02-09T16:11:40.454Z,54.90
2018-02-09T16:14:06.550Z,54.90
2018-02-09T16:16:32.629Z,55.10
2018-02-09T16:18:58.714Z,55.40
2018-02-09T16:21:25.803Z,55.80
2018-02-09T16:23:51.886Z,56.20
2018-02-09T16:26:17.965Z,56.30
2018-02-09T16:28:44.050Z,56.50
2018-02-09T16:31:10.115Z,56.50
2018-02-09T16:33:36.197Z,56.60
2018-02-09T16:36:02.294Z,56.90
2018-02-09T16:38:28.372Z,57.00
2018-02-09T16:40:55.181Z,57.50
2018-02-09T16:43:21.254Z,57.50
2018-02-09T16:45:47.321Z,58.00
2018-02-09T16:48:13.473Z,57.90
2018-02-09T16:50:39.539Z,58.80
2018-02-09T16:53:05.611Z,58.20
2018-02-09T16:55:31.684Z,58.40
2018-02-09T16:57:57.789Z,58.50
2018-02-09T17:00:23.870Z,58.80
2018-02-09T17:02:49.958Z,58.90
2018-02-09T17:05:16.025Z,58.90
2018-02-09T17:07:42.102Z,59.00
2018-02-09T17:10:08.208Z,59.10
2018-02-09T17:12:34.272Z,59.20
2018-02-09T17:15:00.352Z,59.20
2018-02-09T17:17:27.173Z,59.50
2018-02-09T17:19:53.233Z,59.30
2018-02-09T17:22:19.377Z,59.60
2018-02-09T17:24:45.450Z,59.80
2018-02-09T17:27:11.524Z,59.90
2018-02-09T17:29:37.895Z,60.00
2018-02-09T17:32:03.977Z,60.30
2018-02-09T17:34:30.050Z,61.00
2018-02-09T17:36:56.376Z,60.30
2018-02-09T17:39:22.469Z,60.30
2018-02-09T17:41:48.540Z,60.30
2018-02-09T17:44:14.613Z,60.30
2018-02-09T17:46:40.690Z,60.50
2018-02-09T17:49:06.763Z,60.50
2018-02-09T17:51:32.886Z,60.60
2018-02-09T17:53:58.976Z,60.80
2018-02-09T17:56:25.054Z,61.10
2018-02-09T17:58:51.125Z,61.40
2018-02-09T18:01:17.304Z,61.50
2018-02-09T18:03:44.462Z,61.90
2018-02-09T18:06:10.541Z,61.90
2018-02-09T18:08:37.345Z,62.10
2018-02-09T18:11:03.408Z,62.10
2018-02-09T18:13:29.486Z,62.60
2018-02-09T18:15:55.561Z,62.60
2018-02-09T18:18:21.628Z,62.90
2018-02-09T18:20:47.732Z,63.10
2018-02-09T18:23:13.805Z,63.20
2018-02-09T18:25:39.924Z,63.30
2018-02-09T18:28:05.965Z,63.30
2018-02-09T18:30:32.045Z,63.50
2018-02-09T18:32:58.116Z,63.80
2018-02-09T18:35:24.249Z,64.00
2018-02-09T18:37:50.279Z,64.20
2018-02-09T18:40:17.082Z,65.10
2018-02-09T18:42:43.169Z,64.70
2018-02-09T18:45:09.237Z,65.00
2018-02-09T18:47:35.311Z,65.10
2018-02-09T18:50:08.401Z,65.10
2018-02-09T18:52:34.909Z,65.10
2018-02-09T18:55:00.981Z,65.10
2018-02-09T18:57:27.074Z,65.40
2018-02-09T18:59:53.901Z,66.00
2018-02-09T19:02:19.975Z,65.80
2018-02-09T19:04:46.034Z,66.30
2018-02-09T19:07:12.119Z,66.30
2018-02-09T19:09:38.189Z,66.50
2018-02-09T19:12:04.252Z,66.60
2018-02-09T19:14:30.334Z,66.60
2018-02-09T19:16:56.528Z,66.70
2018-02-09T19:19:22.624Z,66.90
2018-02-09T19:21:48.708Z,67.20
2018-02-09T19:24:15.157Z,67.30
2018-02-09T19:26:41.232Z,67.40
2018-02-09T19:29:07.289Z,67.70
2018-02-09T19:31:33.363Z,67.80
2018-02-09T19:33:59.447Z,67.90
2018-02-09T19:36:25.530Z,68.00
2018-02-09T19:38:51.654Z,68.30
2018-02-09T19:41:17.733Z,68.50
2018-02-09T19:43:43.797Z,68.80
2018-02-09T19:46:09.903Z,69.10
2018-02-09T19:48:35.998Z,69.30
2018-02-09T19:51:03.079Z,69.50
2018-02-09T19:53:29.149Z,69.50
2018-02-09T19:55:55.244Z,69.50
2018-02-09T19:58:21.340Z,69.50
2018-02-09T20:00:47.414Z,69.60
2018-02-09T20:03:13.472Z,69.90
2018-02-09T20:05:39.547Z,70.20
2018-02-09T20:08:05.648Z,70.40
2018-02-09T20:10:32.485Z,70.50
2018-02-09T20:12:58.549Z,70.30
2018-02-09T20:15:24.621Z,70.40
2018-02-09T20:17:50.693Z,70.60
2018-02-09T20:20:16.759Z,71.00
2018-02-09T20:22:42.826Z,71.10
2018-02-09T20:25:08.950Z,71.30
2018-02-09T20:27:35.753Z,71.50
2018-02-09T20:30:01.875Z,71.40
2018-02-09T20:32:28.179Z,71.50
2018-02-09T20:34:54.469Z,71.70
2018-02-09T20:37:21.273Z,71.70
2018-02-09T20:39:47.338Z,71.70
2018-02-09T20:42:20.287Z,72.00
2018-02-09T20:44:46.353Z,72.30
2018-02-09T20:47:13.173Z,72.60
2018-02-09T20:49:39.247Z,72.50
2018-02-09T20:52:05.317Z,73.30
2018-02-09T20:54:31.429Z,72.60
2018-02-09T20:56:57.493Z,73.50
2018-02-09T20:59:23.561Z,72.70
2018-02-09T21:01:49.649Z,73.30
2018-02-09T21:04:16.453Z,73.80
2018-02-09T21:06:42.554Z,73.70
2018-02-09T21:09:08.744Z,74.00
2018-02-09T21:11:35.545Z,74.30
2018-02-09T21:14:01.614Z,74.30
2018-02-09T21:16:27.744Z,74.40
2018-02-09T21:18:53.928Z,74.50
2018-02-09T21:21:19.991Z,74.60
2018-02-09T21:23:46.061Z,74.70
2018-02-09T21:26:12.153Z,75.10
2018-02-09T21:28:38.223Z,75.20
2018-02-09T21:31:04.296Z,75.30
2018-02-09T21:33:30.425Z,75.30
2018-02-09T21:35:56.533Z,75.60
2018-02-09T21:38:22.593Z,75.90
2018-02-09T21:40:48.668Z,76.10
2018-02-09T21:43:14.834Z,76.20
2018-02-09T21:45:40.914Z,76.60
2018-02-09T21:48:07.007Z,76.70
2018-02-09T21:50:33.074Z,76.80
2018-02-09T21:52:59.157Z,76.80
2018-02-09T21:55:25.534Z,77.00
2018-02-09T21:57:51.597Z,77.20
2018-02-09T22:00:17.661Z,77.30
2018-02-09T22:02:43.747Z,77.50
2018-02-09T22:05:09.850Z,77.50
2018-02-09T22:07:36.669Z,77.50
2018-02-09T22:10:02.745Z,77.30
2018-02-09T22:12:28.813Z,77.80
2018-02-09T22:14:54.901Z,78.10
2018-02-09T22:17:21.012Z,78.30
2018-02-09T22:19:47.805Z,78.50
2018-02-09T22:22:14.250Z,78.50
2018-02-09T22:24:41.129Z,78.60
2018-02-09T22:27:07.198Z,78.60
2018-02-09T22:29:33.273Z,78.50
2018-02-09T22:31:59.360Z,78.50
2018-02-09T22:34:25.429Z,78.90
2018-02-09T22:36:51.509Z,79.00
2018-02-09T22:39:17.676Z,78.90
2018-02-09T22:41:43.794Z,79.00
2018-02-09T22:44:09.857Z,79.50
2018-02-09T22:46:35.925Z,79.80
2018-02-09T22:49:02.004Z,79.90
2018-02-09T22:51:28.385Z,80.30
2018-02-09T22:53:55.194Z,80.20
2018-02-09T22:56:21.261Z,80.20
2018-02-09T22:58:47.372Z,80.30
2018-02-09T23:01:13.509Z,80.20
2018-02-09T23:03:39.573Z,80.40
2018-02-09T23:06:05.649Z,80.50
2018-02-09T23:08:32.475Z,80.20
2018-02-09T23:10:58.544Z,80.10
2018-02-09T23:13:24.609Z,80.30
2018-02-09T23:15:52.185Z,80.30
2018-02-09T23:18:18.311Z,80.20
2018-02-09T23:20:44.443Z,80.70
2018-02-09T23:23:10.517Z,80.90
2018-02-09T23:25:36.794Z,81.10
2018-02-09T23:28:02.877Z,81.20
2018-02-09T23:30:28.941Z,81.20
2018-02-09T23:32:55.026Z,81.10
2018-02-09T23:35:21.117Z,81.30
2018-02-09T23:37:47.939Z,81.40
2018-02-09T23:40:14.102Z,81.40
2018-02-09T23:42:40.186Z,81.70
2018-02-09T23:45:06.303Z,81.80
2018-02-09T23:47:33.870Z,82.10
2018-02-09T23:50:01.490Z,82.10
2018-02-09T23:52:28.190Z,82.10
2018-02-09T23:54:54.269Z,82.10
2018-02-09T23:57:20.348Z,82.20
2018-02-09T23:59:47.232Z,82.10
